Time;durP1;ratioP1;P1;durP2;ratioP2;P2;SDS_P1;SDS_P2;PMS_P1;PMS_P2;Temp;Humidity;BMP_temperature;BMP_pressure;BME280_temperature;BME280_humidity;BME280_pressure;Samples;Min_cycle;Max_cycle;Signal;HPM_P1;HPM_P2
2021/10/24 00:01:37;;;;;;;33.63;17.33;;;5.10;99.90;;;;;;5076639;28;20190;-85
2021/10/24 00:04:02;;;;;;;31.60;17.33;;;5.20;99.90;;;;;;5043397;28;20244;-85
2021/10/24 00:06:28;;;;;;;35.57;18.30;;;5.00;99.90;;;;;;5076387;28;20197;-85
2021/10/24 00:08:54;;;;;;;29.90;16.20;;;5.00;99.90;;;;;;5094373;28;20181;-85
2021/10/24 00:11:20;;;;;;;37.57;16.83;;;4.90;99.90;;;;;;5094568;28;20270;-85
2021/10/24 00:13:45;;;;;;;31.10;16.70;;;5.00;99.90;;;;;;5076362;28;20260;-84
2021/10/24 00:16:11;;;;;;;28.27;15.97;;;4.90;99.90;;;;;;5059393;28;20749;-84
2021/10/24 00:18:37;;;;;;;33.70;16.17;;;4.90;99.90;;;;;;5094321;28;20171;-84
2021/10/24 00:21:02;;;;;;;29.17;15.67;;;4.80;99.90;;;;;;5093811;28;20194;-84
2021/10/24 00:23:28;;;;;;;30.77;15.87;;;4.80;99.90;;;;;;5076058;28;20287;-84
2021/10/24 00:25:54;;;;;;;32.73;18.00;;;4.70;99.90;;;;;;5059230;28;20228;-84
2021/10/24 00:28:19;;;;;;;32.77;17.03;;;4.70;99.90;;;;;;5076094;28;20183;-84
2021/10/24 00:30:45;;;;;;;35.70;16.30;;;4.70;99.90;;;;;;5076377;28;20205;-84
2021/10/24 00:33:11;;;;;;;31.90;16.70;;;4.70;99.90;;;;;;5042373;28;20174;-84
2021/10/24 00:35:36;;;;;;;31.77;16.40;;;4.60;99.90;;;;;;5094151;28;20183;-84
2021/10/24 00:38:02;;;;;;;34.73;17.33;;;4.90;99.90;;;;;;5094002;28;20257;-85
2021/10/24 00:40:28;;;;;;;31.50;15.77;;;4.60;99.90;;;;;;5058986;28;20210;-85
2021/10/24 00:42:54;;;;;;;34.50;16.87;;;4.50;99.90;;;;;;5093973;28;20189;-85
2021/10/24 00:45:23;;;;;;;36.73;15.13;;;4.60;99.90;;;;;;5075767;28;20181;-85
2021/10/24 00:47:50;;;;;;;34.73;15.63;;;4.50;99.90;;;;;;5076123;28;20177;-84
2021/10/24 00:50:15;;;;;;;29.30;14.53;;;4.50;99.90;;;;;;5093398;28;20273;-85
2021/10/24 00:52:43;;;;;;;28.07;14.57;;;4.50;99.90;;;;;;5075179;28;20265;-85
2021/10/24 00:55:09;;;;;;;39.93;15.30;;;4.50;99.90;;;;;;5093862;28;20232;-85
2021/10/24 00:57:35;;;;;;;28.80;14.53;;;4.40;99.90;;;;;;5095191;28;20630;-84
2021/10/24 01:00:07;;;;;;;29.37;14.43;;;4.40;99.90;;;;;;5057045;28;20730;-85
2021/10/24 01:02:34;;;;;;;26.47;13.63;;;5.10;99.90;;;;;;5106369;28;20162;-85
2021/10/24 01:05:00;;;;;;;28.37;14.70;;;4.70;99.90;;;;;;5105835;28;20177;-84
2021/10/24 01:07:25;;;;;;;26.70;14.40;;;4.40;99.90;;;;;;5064157;28;20546;-85
2021/10/24 01:09:52;;;;;;;32.83;16.77;;;4.40;99.90;;;;;;5094083;28;20193;-84
2021/10/24 01:12:18;;;;;;;37.77;18.13;;;5.00;99.90;;;;;;5075304;28;20258;-84
2021/10/24 01:14:43;;;;;;;38.47;17.67;;;4.40;99.90;;;;;;5075576;28;20623;-84
2021/10/24 01:17:09;;;;;;;35.33;17.67;;;4.30;99.90;;;;;;5058566;28;20591;-84
2021/10/24 01:19:35;;;;;;;36.50;17.03;;;5.20;99.90;;;;;;5093176;28;20228;-84
2021/10/24 01:22:00;;;;;;;44.63;19.50;;;4.30;99.90;;;;;;5075828;28;20226;-84
2021/10/24 01:24:26;;;;;;;40.53;19.17;;;4.30;99.90;;;;;;5075262;28;20185;-84
2021/10/24 01:26:51;;;;;;;38.87;18.17;;;4.40;99.90;;;;;;5093549;28;20214;-84
2021/10/24 01:29:17;;;;;;;38.93;19.07;;;4.30;99.90;;;;;;5075260;28;20689;-84
2021/10/24 01:31:43;;;;;;;41.87;19.37;;;4.30;99.90;;;;;;5075517;28;20193;-84
2021/10/24 01:34:09;;;;;;;40.67;20.27;;;4.30;99.90;;;;;;5075097;28;20186;-84
2021/10/24 01:36:35;;;;;;;43.10;19.30;;;4.30;99.90;;;;;;5041981;28;20584;-84
2021/10/24 01:39:00;;;;;;;37.07;17.80;;;4.30;99.90;;;;;;5058400;28;20198;-85
2021/10/24 01:41:29;;;;;;;38.20;18.17;;;4.40;99.90;;;;;;5058195;28;20634;-85
2021/10/24 01:43:56;;;;;;;38.70;17.23;;;4.40;99.90;;;;;;5075067;28;20206;-85
2021/10/24 01:46:22;;;;;;;34.00;17.63;;;4.40;99.90;;;;;;5074972;28;20179;-85
2021/10/24 01:48:48;;;;;;;39.70;19.17;;;4.40;99.90;;;;;;5093285;28;20192;-85
2021/10/24 01:51:14;;;;;;;38.57;17.07;;;4.40;99.90;;;;;;5093053;28;20230;-85
2021/10/24 01:53:42;;;;;;;34.10;15.67;;;4.30;99.90;;;;;;5093212;28;20620;-85
2021/10/24 01:56:09;;;;;;;32.10;16.13;;;4.40;99.90;;;;;;5092642;28;20511;-84
2021/10/24 01:58:35;;;;;;;34.17;15.97;;;4.40;99.90;;;;;;5075060;28;20186;-85
2021/10/24 02:01:02;;;;;;;37.10;16.23;;;4.40;99.90;;;;;;5058284;28;20196;-85
2021/10/24 02:03:28;;;;;;;32.27;17.37;;;4.40;99.90;;;;;;5074825;28;20198;-84
2021/10/24 02:05:53;;;;;;;33.43;17.27;;;4.50;99.90;;;;;;5078022;28;20224;-85
2021/10/24 02:08:20;;;;;;;34.83;15.27;;;5.40;99.90;;;;;;5078626;28;20749;-85
2021/10/24 02:10:46;;;;;;;32.50;16.27;;;4.40;99.90;;;;;;5096932;28;20526;-85
2021/10/24 02:13:12;;;;;;;31.13;17.90;;;4.90;99.90;;;;;;5078329;28;20523;-84
2021/10/24 02:15:39;;;;;;;29.37;15.47;;;4.40;99.90;;;;;;5078332;28;20174;-85
2021/10/24 02:18:06;;;;;;;34.40;14.77;;;4.30;99.90;;;;;;5061770;28;20182;-84
2021/10/24 02:20:34;;;;;;;29.80;15.80;;;4.40;99.90;;;;;;5078278;28;20401;-85
2021/10/24 02:23:01;;;;;;;30.03;15.80;;;4.40;99.90;;;;;;5061719;28;20189;-84
2021/10/24 02:25:27;;;;;;;29.87;15.03;;;4.40;99.90;;;;;;5078189;28;20183;-85
2021/10/24 02:27:53;;;;;;;31.30;15.93;;;4.30;99.90;;;;;;5078337;28;20230;-85
2021/10/24 02:30:18;;;;;;;32.03;14.27;;;4.40;99.90;;;;;;5078158;28;20593;-85
2021/10/24 02:32:44;;;;;;;40.30;15.43;;;4.30;99.90;;;;;;5096458;28;20181;-85
2021/10/24 02:35:12;;;;;;;34.27;15.70;;;4.30;99.90;;;;;;5078165;28;20231;-84
2021/10/24 02:37:38;;;;;;;29.73;15.40;;;4.20;99.90;;;;;;5095869;28;20260;-85
2021/10/24 02:40:06;;;;;;;35.40;15.47;;;4.20;99.90;;;;;;5096325;28;20208;-86
2021/10/24 02:42:32;;;;;;;28.70;13.93;;;4.20;99.90;;;;;;5096028;28;20281;-85
2021/10/24 02:44:58;;;;;;;30.13;14.93;;;4.20;99.90;;;;;;5096172;28;20683;-84
2021/10/24 02:47:23;;;;;;;28.80;13.37;;;4.10;99.90;;;;;;5095979;28;20217;-84
2021/10/24 02:49:49;;;;;;;31.57;16.07;;;4.10;99.90;;;;;;5096337;28;20192;-84
2021/10/24 02:52:15;;;;;;;27.23;14.37;;;4.00;99.90;;;;;;5078086;28;20186;-85
2021/10/24 02:54:41;;;;;;;31.77;13.90;;;4.00;99.90;;;;;;5095632;28;20176;-85
2021/10/24 02:57:07;;;;;;;32.63;15.63;;;4.00;99.90;;;;;;5077764;28;20641;-85
2021/10/24 02:59:33;;;;;;;33.03;15.20;;;4.00;99.90;;;;;;5060769;28;20251;-85
2021/10/24 03:02:00;;;;;;;34.93;15.83;;;4.10;99.90;;;;;;5078188;28;20213;-85
2021/10/24 03:04:27;;;;;;;30.63;15.57;;;3.90;99.90;;;;;;5077472;28;20233;-85
2021/10/24 03:06:53;;;;;;;36.83;17.30;;;3.90;99.90;;;;;;5077998;28;20225;-84
2021/10/24 03:09:19;;;;;;;31.93;15.77;;;4.00;99.90;;;;;;5060881;28;20257;-85
2021/10/24 03:11:44;;;;;;;36.20;16.57;;;4.10;99.90;;;;;;5095695;28;20267;-85
2021/10/24 03:14:10;;;;;;;32.03;15.63;;;4.80;99.90;;;;;;5077936;28;20179;-85
2021/10/24 03:16:36;;;;;;;29.77;14.67;;;4.00;99.90;;;;;;5059785;28;20204;-84
2021/10/24 03:19:02;;;;;;;29.93;14.57;;;4.00;99.90;;;;;;5060372;28;20601;-85
2021/10/24 03:21:29;;;;;;;33.50;17.73;;;4.00;99.90;;;;;;5095028;28;20273;-84
2021/10/24 03:23:55;;;;;;;35.17;15.93;;;3.90;99.90;;;;;;5077407;28;20183;-85
2021/10/24 03:26:21;;;;;;;35.37;16.27;;;3.90;99.90;;;;;;5077095;28;20184;-85
2021/10/24 03:28:47;;;;;;;36.47;15.30;;;3.90;99.90;;;;;;5095340;28;20223;-85
2021/10/24 03:31:13;;;;;;;35.37;16.37;;;3.90;99.90;;;;;;5060645;28;20195;-84
2021/10/24 03:33:38;;;;;;;32.73;15.23;;;3.90;99.90;;;;;;5095325;28;20179;-85
2021/10/24 03:36:04;;;;;;;29.90;15.30;;;3.90;99.90;;;;;;5076780;28;20693;-84
2021/10/24 03:38:30;;;;;;;31.10;17.40;;;3.80;99.90;;;;;;5094924;28;20172;-84
2021/10/24 03:40:56;;;;;;;30.53;15.87;;;3.80;99.90;;;;;;5095026;28;20528;-85
2021/10/24 03:43:21;;;;;;;30.17;15.00;;;4.70;99.90;;;;;;5094825;28;20639;-85
2021/10/24 03:45:47;;;;;;;33.93;16.37;;;3.80;99.90;;;;;;5094504;28;20185;-85
2021/10/24 03:48:13;;;;;;;30.03;15.93;;;3.70;99.90;;;;;;5076583;28;20184;-84
2021/10/24 03:50:38;;;;;;;34.20;15.73;;;3.70;99.90;;;;;;5094439;28;20183;-85
2021/10/24 03:53:04;;;;;;;38.03;16.60;;;3.70;99.90;;;;;;5094867;28;20190;-85
2021/10/24 03:55:30;;;;;;;34.37;16.40;;;3.70;99.90;;;;;;5094856;28;20192;-85
2021/10/24 03:57:55;;;;;;;35.97;14.80;;;3.70;99.90;;;;;;5094861;28;20677;-85
2021/10/24 04:00:21;;;;;;;31.40;15.57;;;4.60;99.90;;;;;;5076417;28;20236;-84
2021/10/24 04:02:54;;;;;;;34.03;16.87;;;3.60;99.90;;;;;;5094534;28;20220;-84
2021/10/24 04:05:21;;;;;;;32.83;16.90;;;3.60;99.90;;;;;;5096174;28;20170;-83
2021/10/24 04:07:48;;;;;;;31.13;16.17;;;3.50;99.90;;;;;;5095900;28;20235;-83
2021/10/24 04:10:15;;;;;;;32.93;16.83;;;3.60;99.90;;;;;;5094957;28;20631;-84
2021/10/24 04:12:41;;;;;;;32.17;16.23;;;3.60;99.90;;;;;;5076216;28;20178;-83
2021/10/24 04:15:08;;;;;;;36.07;16.97;;;3.50;99.90;;;;;;5076414;28;20241;-84
2021/10/24 04:17:33;;;;;;;36.83;17.63;;;3.50;99.90;;;;;;5042726;28;20188;-83
2021/10/24 04:19:59;;;;;;;37.07;18.00;;;3.50;99.90;;;;;;5059580;28;20672;-83
2021/10/24 04:22:25;;;;;;;38.87;18.03;;;4.00;99.90;;;;;;5094334;28;20189;-83
2021/10/24 04:24:50;;;;;;;34.03;16.77;;;4.00;99.90;;;;;;5094388;28;20187;-83
2021/10/24 04:27:16;;;;;;;37.13;17.83;;;3.50;99.90;;;;;;5059186;28;20632;-83
2021/10/24 04:29:42;;;;;;;37.07;17.53;;;3.50;99.90;;;;;;5094012;28;20179;-83
2021/10/24 04:32:08;;;;;;;39.23;18.60;;;3.50;99.90;;;;;;5076324;28;20639;-84
2021/10/24 04:34:33;;;;;;;37.27;18.07;;;3.50;99.90;;;;;;5093661;28;20273;-83
2021/10/24 04:36:59;;;;;;;38.73;17.23;;;3.50;99.90;;;;;;5058925;28;20264;-84
2021/10/24 04:39:24;;;;;;;35.77;17.43;;;3.50;99.90;;;;;;5075957;28;20211;-84
2021/10/24 04:41:50;;;;;;;33.27;15.47;;;3.50;99.90;;;;;;5094199;28;20189;-84
2021/10/24 04:44:16;;;;;;;40.07;18.50;;;3.60;99.90;;;;;;5063702;28;20189;-84
2021/10/24 04:46:41;;;;;;;36.80;17.60;;;3.60;99.90;;;;;;5098014;28;20676;-83
2021/10/24 04:49:07;;;;;;;34.93;17.23;;;3.60;99.90;;;;;;5075892;28;20214;-83
2021/10/24 04:51:32;;;;;;;31.77;16.60;;;3.60;99.90;;;;;;5075745;28;20617;-83
2021/10/24 04:53:58;;;;;;;35.80;17.53;;;4.30;99.90;;;;;;5093408;28;20176;-83
2021/10/24 04:56:24;;;;;;;32.87;16.47;;;3.60;99.90;;;;;;5075893;28;20180;-83
2021/10/24 04:58:49;;;;;;;30.33;15.53;;;3.60;99.90;;;;;;5093508;28;20674;-83
2021/10/24 05:01:15;;;;;;;35.90;16.73;;;3.70;99.90;;;;;;5059478;28;20194;-84
2021/10/24 05:03:41;;;;;;;40.17;15.30;;;4.90;99.90;;;;;;5075445;28;20193;-84
2021/10/24 05:06:07;;;;;;;38.20;17.17;;;3.70;99.90;;;;;;5076554;28;20243;-83
2021/10/24 05:08:32;;;;;;;37.50;17.43;;;3.70;99.90;;;;;;5068261;28;20243;-83
2021/10/24 05:10:58;;;;;;;46.20;19.23;;;3.70;99.90;;;;;;5098309;28;20189;-84
2021/10/24 05:13:24;;;;;;;40.00;18.73;;;3.70;99.90;;;;;;5076176;28;20684;-83
2021/10/24 05:15:49;;;;;;;39.63;18.27;;;3.70;99.90;;;;;;5093530;28;20264;-85
2021/10/24 05:18:15;;;;;;;33.43;16.47;;;3.70;99.90;;;;;;5058781;28;20288;-85
2021/10/24 05:20:41;;;;;;;41.83;20.00;;;3.70;99.90;;;;;;5044246;28;20215;-85
2021/10/24 05:23:06;;;;;;;40.73;19.50;;;3.60;99.90;;;;;;5078328;28;20292;-85
2021/10/24 05:25:32;;;;;;;45.57;18.77;;;3.70;99.90;;;;;;5076670;28;20619;-84
2021/10/24 05:27:58;;;;;;;39.43;19.30;;;3.70;99.90;;;;;;5059904;28;20265;-84
2021/10/24 05:30:24;;;;;;;43.37;20.23;;;3.70;99.90;;;;;;5094795;28;20177;-86
2021/10/24 05:32:51;;;;;;;46.53;20.83;;;3.80;99.90;;;;;;5077972;28;20182;-86
2021/10/24 05:35:17;;;;;;;45.80;20.00;;;3.80;99.90;;;;;;5060247;28;20184;-87
2021/10/24 05:37:42;;;;;;;46.13;19.93;;;3.70;99.90;;;;;;5075488;28;20572;-86
2021/10/24 05:40:09;;;;;;;46.43;21.27;;;3.80;99.90;;;;;;5061273;28;20213;-88
2021/10/24 05:42:35;;;;;;;39.03;18.47;;;3.80;99.90;;;;;;5063186;28;20276;-87
2021/10/24 05:45:00;;;;;;;48.70;20.13;;;3.80;99.90;;;;;;5079215;28;20210;-86
2021/10/24 05:47:28;;;;;;;47.83;21.03;;;3.90;99.90;;;;;;5078951;28;20182;-86
2021/10/24 05:49:54;;;;;;;38.07;19.83;;;4.00;99.90;;;;;;5062447;28;20816;-85
2021/10/24 05:52:20;;;;;;;41.40;18.30;;;3.90;99.90;;;;;;5079478;28;20744;-86
2021/10/24 05:54:46;;;;;;;50.00;21.77;;;3.90;99.90;;;;;;5063251;28;20272;-85
2021/10/24 05:57:12;;;;;;;42.40;20.20;;;3.90;99.90;;;;;;5098033;28;20177;-85
2021/10/24 05:59:37;;;;;;;48.70;21.83;;;4.20;99.90;;;;;;5079406;28;20212;-86
2021/10/24 06:02:03;;;;;;;45.30;21.57;;;4.30;99.90;;;;;;5063792;28;20192;-87
2021/10/24 06:04:29;;;;;;;53.67;22.30;;;3.90;99.90;;;;;;5079000;28;20637;-87
2021/10/24 06:06:55;;;;;;;44.67;21.63;;;4.00;99.90;;;;;;5062306;28;20189;-85
2021/10/24 06:09:29;;;;;;;44.77;20.57;;;4.00;99.90;;;;;;5045540;28;20187;-85
2021/10/24 06:12:00;;;;;;;40.97;19.43;;;4.00;99.90;;;;;;5063181;28;20193;-85
2021/10/24 06:14:26;;;;;;;46.90;20.50;;;4.00;99.90;;;;;;5078577;28;20185;-84
2021/10/24 06:16:52;;;;;;;47.40;21.27;;;4.10;99.90;;;;;;5078348;28;20190;-85
2021/10/24 06:19:17;;;;;;;49.10;21.23;;;4.20;99.90;;;;;;5096312;28;20214;-85
2021/10/24 06:21:43;;;;;;;39.70;18.93;;;4.20;99.90;;;;;;5078844;28;20181;-90
2021/10/24 06:24:09;;;;;;;41.23;20.73;;;4.40;99.90;;;;;;5061774;28;20599;-86
2021/10/24 06:26:35;;;;;;;38.97;18.50;;;4.40;99.90;;;;;;5078862;28;20181;-84
2021/10/24 06:29:01;;;;;;;43.87;18.40;;;1.90;99.90;;;;;;5096323;28;20170;-84
2021/10/24 06:31:27;;;;;;;42.93;19.53;;;4.70;99.90;;;;;;5078548;28;20230;-84
2021/10/24 06:33:52;;;;;;;37.33;18.60;;;4.30;99.90;;;;;;5078148;28;20250;-84
2021/10/24 06:36:18;;;;;;;39.13;18.00;;;4.30;99.90;;;;;;5078272;28;20233;-83
2021/10/24 06:38:44;;;;;;;40.70;17.53;;;4.30;99.90;;;;;;5077915;28;20544;-84
2021/10/24 06:41:09;;;;;;;34.00;16.43;;;4.40;99.90;;;;;;5096781;28;20181;-84
2021/10/24 06:43:35;;;;;;;36.07;18.83;;;4.40;99.90;;;;;;5095728;28;20181;-84
2021/10/24 06:46:01;;;;;;;32.00;16.37;;;4.40;99.90;;;;;;5095884;28;20177;-84
2021/10/24 06:48:27;;;;;;;35.83;17.83;;;4.40;99.90;;;;;;5060926;28;20276;-84
2021/10/24 06:50:53;;;;;;;34.23;17.27;;;4.40;99.90;;;;;;5076067;28;20193;-85
2021/10/24 06:53:18;;;;;;;34.60;17.17;;;4.40;99.90;;;;;;5095413;28;20187;-83
2021/10/24 06:55:44;;;;;;;28.63;15.13;;;;;;;;;;5077345;28;20173;-90
2021/10/24 06:58:10;;;;;;;36.93;17.23;;;4.60;99.90;;;;;;5078266;28;20187;-86
2021/10/24 07:00:36;;;;;;;39.37;16.53;;;4.60;99.90;;;;;;5060906;28;20308;-84
2021/10/24 07:03:01;;;;;;;30.90;15.10;;;4.60;99.90;;;;;;5060748;28;20193;-84
2021/10/24 07:05:27;;;;;;;27.73;15.57;;;4.70;99.90;;;;;;5095690;28;20231;-84
2021/10/24 07:07:53;;;;;;;34.97;17.23;;;4.70;99.90;;;;;;5060770;28;20189;-84
2021/10/24 07:10:20;;;;;;;32.27;15.30;;;5.10;99.90;;;;;;5060997;28;20213;-84
2021/10/24 07:12:51;;;;;;;29.33;15.10;;;4.90;99.90;;;;;;5095307;28;20178;-85
2021/10/24 07:15:18;;;;;;;31.17;15.37;;;5.00;99.90;;;;;;5095105;28;20159;-87
2021/10/24 07:17:43;;;;;;;24.13;14.23;;;5.00;99.90;;;;;;5078611;28;20630;-83
2021/10/24 07:20:10;;;;;;;30.50;14.40;;;4.90;99.90;;;;;;5095785;28;20209;-85
2021/10/24 07:22:36;;;;;;;30.60;15.17;;;4.90;99.90;;;;;;5096229;28;20635;-85
2021/10/24 07:25:03;;;;;;;25.53;14.23;;;4.90;99.90;;;;;;5094154;28;20651;-85
2021/10/24 07:27:29;;;;;;;28.10;14.30;;;5.00;99.90;;;;;;5094315;28;20178;-86
2021/10/24 07:29:55;;;;;;;31.13;16.17;;;4.90;99.90;;;;;;5076061;28;20181;-84
2021/10/24 07:32:21;;;;;;;29.43;14.90;;;5.00;99.90;;;;;;5058845;28;20207;-84
2021/10/24 07:34:46;;;;;;;27.63;14.47;;;5.10;99.90;;;;;;5093642;28;20185;-84
2021/10/24 07:37:12;;;;;;;37.00;19.07;;;5.10;99.90;;;;;;5074803;28;20283;-84
2021/10/24 07:39:38;;;;;;;30.27;15.57;;;5.20;99.90;;;;;;5075611;28;20202;-85
2021/10/24 07:42:04;;;;;;;28.97;16.43;;;5.30;99.90;;;;;;5059217;28;20224;-84
2021/10/24 07:44:31;;;;;;;27.73;14.80;;;5.30;99.90;;;;;;5076012;28;20174;-85
2021/10/24 07:46:57;;;;;;;28.23;15.10;;;;;;;;;;5059054;28;20178;-84
2021/10/24 07:49:26;;;;;;;30.87;14.50;;;5.40;99.90;;;;;;5075540;28;20187;-84
2021/10/24 07:51:52;;;;;;;27.57;14.77;;;5.70;99.90;;;;;;5075803;28;20239;-84
2021/10/24 07:54:17;;;;;;;28.90;14.83;;;5.50;99.90;;;;;;5075802;28;20787;-84
2021/10/24 07:56:44;;;;;;;29.63;15.77;;;5.70;99.90;;;;;;5060121;28;20191;-85
2021/10/24 07:59:09;;;;;;;29.87;15.00;;;5.60;99.90;;;;;;5059294;28;20209;-86
2021/10/24 08:01:36;;;;;;;29.03;15.17;;;5.70;99.90;;;;;;5075705;28;20519;-85
2021/10/24 08:04:02;;;;;;;41.00;21.73;;;5.90;99.90;;;;;;5075335;28;20189;-85
2021/10/24 08:06:29;;;;;;;36.80;21.07;;;6.00;99.90;;;;;;5076063;28;20353;-85
2021/10/24 08:08:54;;;;;;;101.80;59.47;;;6.00;99.90;;;;;;5059636;28;20182;-85
2021/10/24 08:11:20;;;;;;;78.43;45.63;;;6.00;99.90;;;;;;5042708;28;20230;-85
2021/10/24 08:13:46;;;;;;;60.83;33.93;;;6.00;99.90;;;;;;5059753;28;20651;-86
2021/10/24 08:16:12;;;;;;;35.73;20.83;;;6.20;99.90;;;;;;5059871;28;20187;-86
2021/10/24 08:18:38;;;;;;;30.03;16.60;;;6.30;99.90;;;;;;5076101;28;20178;-86
2021/10/24 08:21:03;;;;;;;33.30;18.47;;;6.50;99.90;;;;;;5075692;28;20331;-84
2021/10/24 08:23:31;;;;;;;28.33;13.80;;;6.70;99.90;;;;;;5042683;28;20213;-85
2021/10/24 08:25:56;;;;;;;24.33;12.73;;;6.80;99.90;;;;;;5075829;28;20183;-85
2021/10/24 08:28:22;;;;;;;30.27;14.50;;;6.80;99.90;;;;;;5104783;28;20643;-85
2021/10/24 08:30:51;;;;;;;31.60;15.90;;;6.80;99.90;;;;;;5086380;28;20627;-86
2021/10/24 08:33:16;;;;;;;27.83;14.73;;;6.90;99.90;;;;;;5074798;28;20281;-85
2021/10/24 08:35:42;;;;;;;27.10;14.73;;;7.00;99.90;;;;;;5074491;28;20265;-85
2021/10/24 08:38:08;;;;;;;40.53;23.30;;;7.00;99.90;;;;;;5092494;28;20170;-86
2021/10/24 08:40:33;;;;;;;29.57;16.67;;;7.10;99.90;;;;;;5075232;28;20678;-86
2021/10/24 08:43:14;;;;;;;24.97;12.33;;;7.10;99.90;;;;;;5093201;28;20248;-86
2021/10/24 08:45:41;;;;;;;24.73;10.83;;;7.10;99.90;;;;;;5078340;28;20166;-86
2021/10/24 08:48:07;;;;;;;17.50;10.13;;;7.00;99.90;;;;;;5060228;28;20186;-85
2021/10/24 08:50:33;;;;;;;23.83;13.33;;;7.00;99.90;;;;;;5075543;28;20663;-86
2021/10/24 08:53:05;;;;;;;25.97;13.13;;;7.00;99.90;;;;;;5093221;28;20182;-86
2021/10/24 08:55:31;;;;;;;21.20;12.07;;;7.10;99.90;;;;;;5075066;28;20579;-85
2021/10/24 08:57:57;;;;;;;21.63;11.63;;;7.10;99.90;;;;;;5078655;28;20178;-83
2021/10/24 09:00:23;;;;;;;14.30;9.30;;;7.20;99.90;;;;;;5077597;28;20202;-84
2021/10/24 09:02:56;;;;;;;19.40;10.27;;;7.20;99.90;;;;;;5093499;28;20551;-85
2021/10/24 09:05:33;;;;;;;13.90;8.50;;;7.20;99.90;;;;;;5074794;28;20243;-85
2021/10/24 09:07:59;;;;;;;16.00;7.83;;;7.20;99.90;;;;;;5059915;28;20539;-87
2021/10/24 09:10:35;;;;;;;15.43;8.50;;;7.40;99.90;;;;;;5060410;28;20224;-87
2021/10/24 09:13:03;;;;;;;10.90;6.70;;;7.40;99.90;;;;;;5095176;28;20206;-87
2021/10/24 09:15:28;;;;;;;12.87;6.37;;;7.60;99.90;;;;;;5065129;28;20189;-90
2021/10/24 09:18:10;;;;;;;12.70;7.20;;;7.50;99.90;;;;;;5084200;28;20221;-86
2021/10/24 09:20:36;;;;;;;12.07;7.07;;;7.60;99.90;;;;;;5096737;28;20194;-86
2021/10/24 09:23:06;;;;;;;11.40;6.50;;;7.50;99.90;;;;;;5095192;28;20696;-86
2021/10/24 09:25:32;;;;;;;11.07;6.03;;;7.60;99.90;;;;;;5095326;28;20252;-87
2021/10/24 09:28:00;;;;;;;12.47;6.27;;;7.50;99.90;;;;;;5094763;28;20631;-87
2021/10/24 09:30:36;;;;;;;9.07;6.17;;;7.60;99.90;;;;;;5077338;28;20174;-87
2021/10/24 09:33:05;;;;;;;12.27;7.33;;;7.70;99.90;;;;;;5095273;28;20170;-87
2021/10/24 09:35:50;;;;;;;13.17;7.50;;;7.80;99.90;;;;;;5093986;28;20170;-86
2021/10/24 09:38:27;;;;;;;10.20;7.40;;;7.80;99.90;;;;;;5076565;28;20205;-87
2021/10/24 09:40:56;;;;;;;11.47;6.23;;;7.90;99.90;;;;;;5094421;28;20229;-87
2021/10/24 09:43:24;;;;;;;11.10;6.67;;;8.00;99.90;;;;;;5093874;28;20255;-86
2021/10/24 09:45:51;;;;;;;11.37;6.53;;;8.20;99.90;;;;;;5076039;28;20174;-86
2021/10/24 09:48:19;;;;;;;12.87;6.33;;;8.20;99.90;;;;;;5076238;28;20170;-86
2021/10/24 09:51:00;;;;;;;14.30;6.70;;;8.20;99.90;;;;;;5059912;28;20279;-86
2021/10/24 09:53:29;;;;;;;11.53;6.03;;;8.40;99.90;;;;;;5075998;28;20534;-86
2021/10/24 09:55:55;;;;;;;7.87;5.30;;;8.40;99.90;;;;;;5094336;28;20193;-86
2021/10/24 09:58:24;;;;;;;9.13;5.43;;;8.30;99.90;;;;;;5094379;28;20611;-86
2021/10/24 10:00:49;;;;;;;9.03;5.73;;;8.30;99.90;;;;;;5076908;28;20244;-86
2021/10/24 10:03:17;;;;;;;8.20;5.60;;;8.50;99.90;;;;;;5075614;28;20186;-86
2021/10/24 10:05:43;;;;;;;6.27;4.13;;;8.60;99.90;;;;;;5094097;28;20167;-86
2021/10/24 10:08:13;;;;;;;8.87;5.23;;;8.80;99.90;;;;;;5075929;28;20236;-86
2021/10/24 10:10:47;;;;;;;6.97;4.30;;;9.00;99.90;;;;;;5059781;28;20206;-87
2021/10/24 10:13:18;;;;;;;8.17;3.93;;;9.10;99.90;;;;;;5075142;28;20182;-86
2021/10/24 10:15:47;;;;;;;7.97;4.93;;;9.00;99.90;;;;;;5074651;28;20179;-84
2021/10/24 10:18:13;;;;;;;10.37;4.70;;;9.00;99.90;;;;;;5075157;28;20483;-84
2021/10/24 10:20:53;;;;;;;6.97;4.60;;;8.90;99.90;;;;;;5093079;28;20272;-84
2021/10/24 10:23:23;;;;;;;8.33;4.77;;;8.60;99.90;;;;;;5075210;28;20175;-85
2021/10/24 10:25:50;;;;;;;9.17;5.33;;;8.50;99.90;;;;;;5076429;28;20250;-85
2021/10/24 10:28:43;;;;;;;7.47;4.97;;;8.40;99.90;;;;;;5078894;28;20181;-88
2021/10/24 10:31:13;;;;;;;7.37;4.73;;;8.50;99.90;;;;;;5068722;28;20190;-85
2021/10/24 10:33:40;;;;;;;8.33;4.40;;;8.60;99.90;;;;;;5096168;28;20183;-85
2021/10/24 10:36:07;;;;;;;7.97;4.93;;;8.50;99.90;;;;;;5096685;28;20241;-87
2021/10/24 10:38:43;;;;;;;5.70;3.90;;;8.50;99.90;;;;;;5079235;28;20254;-91
2021/10/24 10:41:14;;;;;;;10.43;4.70;;;8.50;99.90;;;;;;5079276;28;20682;-87
2021/10/24 10:43:41;;;;;;;6.80;4.33;;;8.30;99.90;;;;;;5061950;28;20359;-85
2021/10/24 10:46:08;;;;;;;6.37;4.20;;;8.20;99.90;;;;;;5096390;28;20177;-86
2021/10/24 10:48:46;;;;;;;7.93;4.73;;;8.10;99.90;;;;;;5095924;28;20182;-85
2021/10/24 10:51:21;;;;;;;6.13;4.20;;;8.20;99.90;;;;;;5096299;28;20159;-85
2021/10/24 10:53:46;;;;;;;7.63;4.70;;;8.40;99.90;;;;;;5077911;28;20209;-86
2021/10/24 10:56:12;;;;;;;7.33;4.67;;;8.60;99.90;;;;;;5096056;28;20239;-86
2021/10/24 10:58:42;;;;;;;10.67;5.23;;;8.80;99.90;;;;;;5077284;28;20193;-86
2021/10/24 11:01:29;;;;;;;11.50;6.13;;;9.00;99.90;;;;;;5096468;28;20187;-85
2021/10/24 11:04:07;;;;;;;9.13;5.17;;;8.80;99.90;;;;;;5078671;28;20188;-84
2021/10/24 11:06:36;;;;;;;10.87;7.13;;;8.60;99.90;;;;;;5078286;28;20186;-85
2021/10/24 11:09:09;;;;;;;9.80;6.07;;;8.30;99.90;;;;;;5079017;28;20265;-86
2021/10/24 11:11:41;;;;;;;11.47;6.80;;;8.20;99.90;;;;;;5078445;28;20635;-86
2021/10/24 11:14:18;;;;;;;12.03;6.53;;;8.20;99.90;;;;;;5096915;28;20198;-85
2021/10/24 11:16:46;;;;;;;10.03;7.20;;;8.30;99.90;;;;;;5096287;28;20174;-84
2021/10/24 11:19:27;;;;;;;12.63;6.63;;;8.30;99.90;;;;;;5078377;28;20284;-85
2021/10/24 11:22:17;;;;;;;7.90;6.13;;;8.30;99.90;;;;;;5096673;28;20704;-85
2021/10/24 11:24:48;;;;;;;11.53;7.00;;;8.30;99.90;;;;;;5096407;28;20151;-85
2021/10/24 11:27:27;;;;;;;9.23;6.43;;;8.40;99.90;;;;;;5096706;28;20169;-86
2021/10/24 11:29:59;;;;;;;9.37;6.63;;;8.50;99.90;;;;;;5078274;28;20177;-85
2021/10/24 11:32:25;;;;;;;11.83;6.80;;;8.50;99.90;;;;;;5096267;28;20165;-85
2021/10/24 11:34:53;;;;;;;12.83;8.00;;;8.60;99.90;;;;;;5096239;28;20177;-85
2021/10/24 11:37:38;;;;;;;12.23;7.30;;;8.60;99.90;;;;;;5060331;28;20742;-85
2021/10/24 11:40:08;;;;;;;13.23;8.53;;;8.50;99.90;;;;;;5077986;28;20206;-85
2021/10/24 11:42:34;;;;;;;11.50;7.63;;;8.60;99.90;;;;;;5096252;28;20611;-85
2021/10/24 11:45:16;;;;;;;12.70;8.13;;;8.40;99.90;;;;;;5061420;28;20183;-85
2021/10/24 11:48:06;;;;;;;15.03;9.17;;;8.40;99.90;;;;;;5061455;28;20193;-86
2021/10/24 11:50:45;;;;;;;14.83;9.50;;;8.50;99.90;;;;;;5095607;28;20169;-87
2021/10/24 11:53:22;;;;;;;17.57;10.93;;;8.50;99.90;;;;;;5077351;28;20188;-84
2021/10/24 11:55:51;;;;;;;20.50;10.37;;;8.40;99.90;;;;;;5077514;28;20537;-86
2021/10/24 11:59:12;;;;;;;20.57;11.27;;;8.30;99.90;;;;;;5097625;28;20185;-86
2021/10/24 12:01:16;;;;;;;14.43;9.27;;;8.20;99.90;;;;;;5077496;28;20298;-86
2021/10/24 12:04:04;;;;;;;14.20;8.70;;;8.00;99.90;;;;;;5095437;28;20172;-85
2021/10/24 12:06:51;;;;;;;15.37;8.93;;;7.70;99.90;;;;;;5095394;28;20198;-86
2021/10/24 12:09:37;;;;;;;15.07;8.87;;;7.50;99.90;;;;;;5100162;28;20230;-85
2021/10/24 12:12:23;;;;;;;14.40;7.43;;;7.40;99.90;;;;;;5107265;28;20147;-85
2021/10/24 12:14:53;;;;;;;12.40;7.03;;;7.60;99.90;;;;;;5094239;28;20167;-86
2021/10/24 12:17:21;;;;;;;13.47;7.83;;;7.50;99.90;;;;;;5076370;28;20269;-86
2021/10/24 12:19:49;;;;;;;14.63;8.00;;;7.50;99.90;;;;;;5075833;28;20202;-86
2021/10/24 12:22:15;;;;;;;16.33;8.03;;;7.40;99.90;;;;;;5076609;28;20617;-86
2021/10/24 12:24:43;;;;;;;14.20;7.30;;;7.30;99.90;;;;;;5043122;28;20189;-87
2021/10/24 12:27:28;;;;;;;13.13;7.20;;;7.40;99.90;;;;;;5076437;28;20223;-85
2021/10/24 12:29:59;;;;;;;10.83;6.63;;;7.30;99.90;;;;;;5094487;28;20151;-86
2021/10/24 12:32:26;;;;;;;11.90;6.70;;;7.30;99.90;;;;;;5094004;28;20163;-88
2021/10/24 12:35:06;;;;;;;12.47;6.97;;;7.50;99.90;;;;;;5059014;28;20257;-85
2021/10/24 12:37:33;;;;;;;14.27;7.63;;;7.60;99.90;;;;;;5093880;28;20226;-85
2021/10/24 12:40:29;;;;;;;13.10;7.47;;;7.60;99.90;;;;;;5043818;28;20210;-85
2021/10/24 12:43:11;;;;;;;14.07;7.77;;;7.70;99.90;;;;;;5094769;28;20166;-85
2021/10/24 12:45:44;;;;;;;17.83;8.20;;;7.60;99.90;;;;;;5093494;28;20527;-85